Terminal Aerodrome Forecast
Issued by NWS

Home | Current Version | Previous Version | Text Only | Print | Product List | Glossary On
Versions: 1 2 3 4 5 6 7 8 9 10 11 12 13 14 15 16 17 18
000
FTUS45 KSLC 272345
TAFPVU
TAF
KPVU 272345Z 2800/2824 35013G18KT P6SM VCSH BKN010 OVC020
     FM281000 33008KT P6SM BKN022 BKN050
     FM281900 31013G20KT P6SM SCT050=

USA.gov is the U.S. government's official web portal to all federal, state and local government web resources and services.